Time;durP1;ratioP1;P1;durP2;ratioP2;P2;SDS_P1;SDS_P2;PMS_P1;PMS_P2;Temp;Humidity;BMP_temperature;BMP_pressure;BME280_temperature;BME280_humidity;BME280_pressure;Samples;Min_cycle;Max_cycle;Signal;HPM_P1;HPM_P2
2022/05/01 00:00:51;;;;;;;16.33;9.38;;;;;;;11.19;69.90;97980.34;5054621;28;20035;-73
2022/05/01 00:03:32;;;;;;;20.90;10.48;;;;;;;11.23;70.01;97983.31;5053042;28;20049;-75
2022/05/01 00:05:59;;;;;;;15.82;9.35;;;;;;;11.26;70.17;97977.22;5052447;28;20036;-73
2022/05/01 00:08:24;;;;;;;15.45;9.40;;;;;;;11.31;70.72;97971.66;5052460;28;20173;-73
2022/05/01 00:10:50;;;;;;;19.40;9.70;;;;;;;11.35;70.02;97969.97;5052406;28;20131;-73
2022/05/01 00:13:15;;;;;;;18.42;9.45;;;;;;;11.32;69.51;97965.09;5051109;28;20071;-74
2022/05/01 00:15:42;;;;;;;15.48;9.02;;;;;;;11.32;69.26;97970.56;5052073;28;20091;-75
2022/05/01 00:18:08;;;;;;;13.98;7.80;;;;;;;11.38;69.12;97963.06;5051848;28;20409;-73
2022/05/01 00:20:34;;;;;;;15.18;9.88;;;;;;;11.27;69.51;97967.91;5051719;28;20116;-75
2022/05/01 00:22:59;;;;;;;13.48;8.48;;;;;;;11.31;69.20;97957.97;5048186;28;20056;-77
2022/05/01 00:25:25;;;;;;;19.67;9.98;;;;;;;11.27;69.22;97957.78;5051907;28;20073;-75
2022/05/01 00:27:50;;;;;;;17.67;10.77;;;;;;;11.27;69.39;97957.78;5050771;28;20021;-75
2022/05/01 00:30:16;;;;;;;19.05;10.57;;;;;;;11.19;70.06;97952.16;5050319;28;20037;-75
2022/05/01 00:38:09;;;;;;;15.10;9.15;;;;;;;11.01;70.56;97947.53;5051764;28;20555;-76
2022/05/01 00:40:35;;;;;;;20.08;9.88;;;;;;;11.00;70.83;97945.91;5050226;28;20021;-75
2022/05/01 00:43:03;;;;;;;16.52;9.50;;;;;;;11.01;70.96;97948.34;5050017;28;20033;-75
2022/05/01 00:45:29;;;;;;;14.52;9.48;;;;;;;10.96;71.17;97948.44;5051905;28;20029;-76
2022/05/01 00:47:55;;;;;;;16.92;9.65;;;;;;;10.96;71.43;97947.63;5051935;28;20103;-74
2022/05/01 00:50:20;;;;;;;12.88;8.77;;;;;;;10.94;71.27;97941.63;5051335;28;20163;-77
2022/05/01 00:52:46;;;;;;;16.05;9.60;;;;;;;10.93;71.43;97934.53;5051745;28;20497;-76
2022/05/01 00:55:12;;;;;;;16.13;9.40;;;;;;;10.94;71.82;97941.63;5051637;28;20405;-74
2022/05/01 00:57:37;;;;;;;17.05;8.85;;;;;;;10.86;71.99;97943.13;5050932;28;20156;-75
2022/05/01 01:00:04;;;;;;;20.45;9.93;;;;;;;10.88;72.05;97940.06;5050954;28;20537;-77
2022/05/01 01:02:31;;;;;;;15.75;8.82;;;;;;;10.83;72.70;97940.97;5031657;28;20049;-74
2022/05/01 01:04:57;;;;;;;22.48;9.30;;;;;;;10.76;73.24;97940.53;5031778;28;20498;-74
2022/05/01 01:07:25;;;;;;;16.65;8.27;;;;;;;10.79;73.21;97936.38;5031126;28;20037;-75
2022/05/01 01:09:50;;;;;;;14.65;9.05;;;;;;;10.70;72.97;97928.88;5031202;28;20049;-74
2022/05/01 01:15:08;;;;;;;16.13;8.13;;;;;;;10.83;73.03;97942.91;5031898;28;20120;-74
2022/05/01 01:17:36;;;;;;;13.02;7.90;;;;;;;10.84;73.05;97941.81;5031500;28;20108;-74
2022/05/01 01:20:15;;;;;;;13.88;8.30;;;;;;;10.88;72.68;97945.53;5031808;28;20449;-74
2022/05/01 01:22:44;;;;;;;15.27;8.75;;;;;;;10.97;71.63;97949.22;5053491;28;20029;-74
2022/05/01 01:25:11;;;;;;;13.95;8.50;;;;;;;11.00;71.59;97943.97;5071484;28;20037;-80
2022/05/01 01:27:38;;;;;;;13.80;7.53;;;;;;;11.02;71.40;97950.00;5058840;28;20025;-75
2022/05/01 01:32:49;;;;;;;16.52;10.77;;;;;;;10.90;73.67;97946.09;5059666;28;20405;-77
2022/05/01 01:35:16;;;;;;;18.10;11.13;;;;;;;10.71;74.81;97952.34;5055532;28;20025;-76
2022/05/01 01:37:46;;;;;;;19.48;11.65;;;;;;;10.65;75.18;97950.81;5054271;28;20493;-77
2022/05/01 01:40:26;;;;;;;27.08;12.00;;;;;;;10.74;74.93;97943.56;5066769;28;20028;-76
2022/05/01 01:42:54;;;;;;;18.33;11.43;;;;;;;10.64;74.46;97943.72;5073236;28;20024;-77
2022/05/01 01:45:20;;;;;;;16.70;10.18;;;;;;;10.64;74.82;97949.19;5073923;28;20032;-75
2022/05/01 01:47:49;;;;;;;18.65;10.15;;;;;;;10.67;74.82;97943.13;5074361;28;20068;-75
2022/05/01 01:50:18;;;;;;;29.63;15.30;;;;;;;10.71;75.97;97943.38;5074102;28;20021;-74
2022/05/01 01:52:47;;;;;;;37.67;21.35;;;;;;;10.64;78.09;97942.91;5075482;28;20028;-79
2022/05/01 01:55:17;;;;;;;44.33;24.02;;;;;;;10.50;79.13;97933.81;5074742;28;20021;-80
2022/05/01 01:57:44;;;;;;;45.30;23.50;;;;;;;10.42;80.05;97938.03;5071062;28;20028;-75
2022/05/01 02:00:10;;;;;;;45.10;24.20;;;;;;;10.29;80.98;97925.06;5070985;28;20031;-77
2022/05/01 02:02:36;;;;;;;44.97;22.75;;;;;;;10.17;81.04;97916.50;5072362;28;20666;-80
2022/05/01 02:05:01;;;;;;;47.47;23.30;;;;;;;10.27;81.36;97927.31;5077046;28;20103;-78
2022/05/01 02:07:30;;;;;;;39.55;22.83;;;;;;;10.41;81.10;97930.91;5072040;28;20122;-76
2022/05/01 02:09:56;;;;;;;39.95;21.85;;;;;;;10.51;80.87;97932.69;5049984;28;20033;-75
2022/05/01 02:12:22;;;;;;;38.88;21.88;;;;;;;10.51;80.11;97922.59;5048330;28;20478;-74
2022/05/01 02:14:47;;;;;;;43.78;24.35;;;;;;;10.48;81.08;97928.66;5049700;28;20574;-77
2022/05/01 02:17:12;;;;;;;41.65;21.67;;;;;;;10.33;82.74;97933.50;5067757;28;20051;-74
2022/05/01 02:19:38;;;;;;;37.67;19.83;;;;;;;10.29;83.04;97929.72;5069044;28;20063;-74
2022/05/01 02:22:03;;;;;;;32.25;20.27;;;;;;;10.27;83.14;97921.84;5068523;28;20032;-74
2022/05/01 02:24:30;;;;;;;30.48;17.75;;;;;;;10.20;84.22;97935.03;5069863;28;20033;-75
2022/05/01 02:26:56;;;;;;;27.45;16.33;;;;;;;10.25;84.42;97929.50;5069897;28;20035;-75
2022/05/01 02:29:21;;;;;;;31.23;16.67;;;;;;;10.36;83.86;97936.47;5069826;28;20028;-75
2022/05/01 02:31:53;;;;;;;22.60;15.25;;;;;;;10.28;84.43;97931.66;5069664;28;20029;-75
2022/05/01 02:34:20;;;;;;;37.42;16.52;;;;;;;10.21;84.76;97936.69;5069903;28;20033;-76
2022/05/01 02:36:45;;;;;;;22.95;13.73;;;;;;;10.05;86.49;97929.75;5068797;28;20015;-74
2022/05/01 02:39:11;;;;;;;26.15;14.60;;;;;;;9.93;87.80;97921.16;5069635;28;20119;-76
2022/05/01 02:41:36;;;;;;;28.40;14.50;;;;;;;9.89;88.63;97926.38;5069157;28;20025;-77
2022/05/01 02:44:03;;;;;;;25.00;14.10;;;;;;;9.87;89.03;97927.75;5060976;28;20021;-77
2022/05/01 02:46:28;;;;;;;29.40;15.35;;;;;;;9.87;89.70;97934.03;5046419;28;20307;-74
2022/05/01 02:48:54;;;;;;;28.15;15.65;;;;;;;9.84;90.11;97937.34;5049267;28;20025;-77
2022/05/01 02:51:20;;;;;;;28.75;15.68;;;;;;;9.82;90.48;97933.28;5049541;28;20106;-75
2022/05/01 02:53:46;;;;;;;23.90;15.48;;;;;;;9.81;90.63;97928.94;5049729;28;20108;-75
2022/05/01 02:56:12;;;;;;;25.20;15.07;;;;;;;9.84;90.96;97928.34;5048146;28;20045;-76
2022/05/01 02:58:37;;;;;;;24.17;15.00;;;;;;;9.84;90.31;97925.59;5049546;28;20087;-74
2022/05/01 03:01:03;;;;;;;26.40;14.93;;;;;;;9.90;90.08;97932.66;5048152;28;20029;-75
2022/05/01 03:03:29;;;;;;;27.38;15.07;;;;;;;9.97;90.18;97930.38;5049614;28;20080;-74
2022/05/01 03:05:57;;;;;;;26.38;15.65;;;;;;;10.02;88.81;97922.13;5050257;28;20402;-76
2022/05/01 03:08:22;;;;;;;25.70;16.27;;;;;;;10.02;88.60;97922.13;5054144;28;20068;-76
2022/05/01 03:10:48;;;;;;;27.05;15.77;;;;;;;10.09;88.59;97926.13;5053033;28;20458;-75
2022/05/01 03:13:14;;;;;;;26.42;14.80;;;;;;;10.10;87.96;97918.75;5052870;28;20036;-74
2022/05/01 03:15:40;;;;;;;29.65;14.32;;;;;;;10.08;88.06;97921.78;5051823;28;20497;-74
2022/05/01 03:23:34;;;;;;;22.90;13.93;;;;;;;10.19;87.38;97917.81;5050246;28;20120;-75
2022/05/01 03:25:59;;;;;;;26.33;14.50;;;;;;;10.21;86.64;97917.53;5051307;28;20116;-74
2022/05/01 03:28:26;;;;;;;21.80;14.30;;;;;;;10.16;87.33;97929.34;5053586;28;20020;-75
2022/05/01 03:30:52;;;;;;;22.83;13.30;;;;;;;10.21;87.26;97929.28;5053243;28;20028;-75
2022/05/01 03:33:21;;;;;;;22.85;13.13;;;;;;;10.25;86.43;97925.94;5053725;28;20029;-74
2022/05/01 03:35:47;;;;;;;23.75;13.40;;;;;;;10.34;85.39;97922.25;5053375;28;20021;-74
2022/05/01 03:38:12;;;;;;;27.08;12.98;;;;;;;10.42;85.27;97918.88;5053336;28;20024;-80
2022/05/01 03:40:38;;;;;;;20.42;13.13;;;;;;;10.37;85.82;97910.75;5052426;28;20673;-74
2022/05/01 03:43:04;;;;;;;25.77;14.43;;;;;;;10.29;85.63;97914.16;5057000;28;20450;-75
2022/05/01 03:45:30;;;;;;;23.67;14.23;;;;;;;10.28;84.90;97919.88;5059163;28;20032;-75
2022/05/01 03:47:56;;;;;;;27.83;17.02;;;;;;;10.21;83.89;97912.09;5053098;28;20497;-77
2022/05/01 03:50:22;;;;;;;31.23;17.55;;;;;;;10.23;84.08;97918.06;5053460;28;20025;-77
2022/05/01 03:52:47;;;;;;;34.35;19.17;;;;;;;10.20;84.15;97915.91;5053433;28;20040;-75
2022/05/01 03:55:13;;;;;;;28.00;15.98;;;;;;;10.17;85.62;97919.22;5053343;28;20712;-75
2022/05/01 03:57:39;;;;;;;26.05;15.82;;;;;;;10.19;85.52;97919.75;5052282;28;20029;-75
2022/05/01 04:00:06;;;;;;;28.63;14.48;;;;;;;10.18;85.56;97918.09;5052225;28;20025;-76
2022/05/01 04:02:42;;;;;;;24.50;14.60;;;;;;;10.38;84.38;97925.22;5052672;28;20044;-75
2022/05/01 04:05:10;;;;;;;24.70;14.98;;;;;;;10.26;85.36;97922.13;5053080;28;20818;-75
2022/05/01 04:07:35;;;;;;;29.20;18.10;;;;;;;10.27;84.98;97930.03;5052853;28;20037;-74
2022/05/01 04:10:00;;;;;;;28.90;17.15;;;;;;;10.23;84.77;97930.91;5053467;28;20399;-74
2022/05/01 04:12:26;;;;;;;30.15;17.55;;;;;;;10.32;85.19;97940.91;5055704;28;20061;-76
2022/05/01 04:14:51;;;;;;;34.63;17.13;;;;;;;10.35;85.19;97929.38;5058720;28;20079;-78
2022/05/01 04:17:17;;;;;;;28.98;16.80;;;;;;;10.33;85.38;97931.59;5054077;28;20080;-76
2022/05/01 04:19:42;;;;;;;26.35;15.90;;;;;;;10.27;85.79;97938.25;5051411;28;20032;-76
2022/05/01 04:22:07;;;;;;;26.73;13.98;;;;;;;10.25;86.56;97945.09;5053533;28;20032;-77
2022/05/01 04:24:33;;;;;;;23.27;14.88;;;;;;;10.33;86.07;97931.59;5054340;28;20033;-76
2022/05/01 04:26:58;;;;;;;27.80;15.15;;;;;;;10.40;85.81;97934.75;5054170;28;20033;-75
2022/05/01 04:29:36;;;;;;;24.63;15.23;;;;;;;10.49;85.09;97938.47;5052740;28;20470;-74
2022/05/01 04:32:02;;;;;;;25.30;15.27;;;;;;;10.50;85.52;97940.09;5051767;28;20013;-74
2022/05/01 04:34:27;;;;;;;25.67;15.07;;;;;;;10.53;85.98;97936.75;5050892;28;20413;-74
2022/05/01 04:36:52;;;;;;;25.88;15.75;;;;;;;10.66;85.41;97935.22;5054803;28;20025;-75
2022/05/01 04:39:18;;;;;;;26.80;16.92;;;;;;;10.79;84.40;97934.47;5056506;28;20451;-75
2022/05/01 04:41:44;;;;;;;26.67;16.88;;;;;;;10.74;83.37;97940.81;5052955;28;20078;-76
2022/05/01 04:44:10;;;;;;;27.75;16.80;;;;;;;10.83;83.01;97937.44;5052391;28;20017;-75
2022/05/01 04:46:36;;;;;;;25.25;16.42;;;;;;;10.92;82.41;97943.84;5051599;28;20032;-75
2022/05/01 04:49:02;;;;;;;27.55;17.58;;;;;;;10.79;82.38;97942.69;5051945;28;20108;-74
2022/05/01 04:51:27;;;;;;;29.88;16.80;;;;;;;10.93;81.78;97956.44;5049150;28;20498;-74
2022/05/01 04:53:53;;;;;;;30.90;16.83;;;;;;;10.74;82.17;97951.75;5045401;28;20024;-77
2022/05/01 04:59:06;;;;;;;35.25;19.05;;;;;;;10.85;81.58;97946.97;5056421;28;20039;-74
2022/05/01 05:01:33;;;;;;;34.13;19.83;;;;;;;11.01;79.63;97948.34;5051882;28;20032;-75
2022/05/01 05:03:59;;;;;;;39.33;18.13;;;;;;;10.99;80.04;97949.78;5052234;28;20107;-75
2022/05/01 05:06:24;;;;;;;29.90;18.92;;;;;;;11.12;79.68;97957.22;5050003;28;20033;-75
2022/05/01 05:11:33;;;;;;;33.42;19.33;;;;;;;11.38;77.88;97947.44;5049327;28;20070;-76
2022/05/01 05:13:59;;;;;;;30.63;18.27;;;;;;;11.38;77.95;97952.94;5050793;28;20452;-75
2022/05/01 05:16:24;;;;;;;31.50;18.13;;;;;;;11.32;77.82;97959.59;5050779;28;20013;-74
2022/05/01 05:18:49;;;;;;;28.60;17.67;;;;;;;11.29;78.48;97961.03;5049195;28;20108;-75
2022/05/01 05:21:15;;;;;;;33.30;19.65;;;;;;;11.34;77.93;97965.59;5050270;28;20120;-74
2022/05/01 05:23:40;;;;;;;34.10;20.33;;;;;;;11.27;78.19;97956.97;5050305;28;20017;-75
2022/05/01 05:26:06;;;;;;;79.30;44.15;;;;;;;11.20;78.30;97945.56;5051145;28;20116;-75
2022/05/01 05:28:31;;;;;;;30.42;19.98;;;;;;;11.30;78.70;97972.78;5049382;28;20032;-75
2022/05/01 05:30:57;;;;;;;31.83;19.85;;;;;;;11.39;78.37;97965.53;5052779;28;20390;-77
2022/05/01 05:33:22;;;;;;;30.00;18.92;;;;;;;11.46;78.50;97970.63;5052193;28;20114;-76
2022/05/01 05:35:48;;;;;;;40.40;20.15;;;;;;;11.68;77.68;97968.81;5051108;28;20417;-76
2022/05/01 05:38:13;;;;;;;29.73;18.27;;;;;;;11.86;77.07;97969.09;5051158;28;20021;-75
2022/05/01 05:40:39;;;;;;;31.15;18.55;;;;;;;11.90;76.89;97970.94;5051040;28;20561;-74
2022/05/01 05:43:04;;;;;;;26.50;17.52;;;;;;;11.97;76.56;97967.75;5050310;28;20025;-76
2022/05/01 05:45:30;;;;;;;27.50;17.40;;;;;;;12.12;75.65;97979.22;5049758;28;20016;-75
2022/05/01 05:47:55;;;;;;;27.83;17.88;;;;;;;12.03;75.31;97980.28;5051300;28;20029;-75
2022/05/01 05:50:21;;;;;;;30.55;18.15;;;;;;;11.96;76.04;97979.84;5050472;28;20111;-76
2022/05/01 05:52:46;;;;;;;27.80;18.05;;;;;;;12.11;75.43;97976.81;5051056;28;20486;-73
2022/05/01 05:55:11;;;;;;;31.35;18.63;;;;;;;12.15;75.08;97981.38;5053645;28;20025;-76
2022/05/01 05:57:37;;;;;;;34.15;19.10;;;;;;;12.22;74.67;97973.56;5053688;28;20040;-75
2022/05/01 06:00:04;;;;;;;27.45;16.20;;;;;;;12.58;73.41;97983.78;5051861;28;20029;-72
2022/05/01 06:02:29;;;;;;;26.58;16.90;;;;;;;12.80;72.30;97984.66;5050534;28;20044;-73
2022/05/01 06:04:55;;;;;;;30.75;15.48;;;;;;;12.90;71.33;97978.13;5049300;28;20033;-73
2022/05/01 06:07:22;;;;;;;26.50;17.58;;;;;;;13.10;69.66;97987.84;5049915;28;20047;-71
2022/05/01 06:09:47;;;;;;;24.65;16.40;;;;;;;13.15;69.27;97990.47;5050200;28;20033;-72
2022/05/01 06:12:12;;;;;;;23.00;15.52;;;;;;;13.33;68.44;97992.25;5049253;28;20494;-73
2022/05/01 06:14:39;;;;;;;26.05;15.63;;;;;;;13.30;68.24;97990.94;5050113;28;20540;-72
2022/05/01 06:17:05;;;;;;;23.75;15.60;;;;;;;13.27;67.85;97986.06;5050472;28;20075;-73
2022/05/01 06:19:30;;;;;;;21.80;14.57;;;;;;;13.47;66.57;97986.69;5049356;28;20069;-74
2022/05/01 06:21:55;;;;;;;24.60;14.18;;;;;;;13.73;65.91;97976.66;5053631;28;20021;-73
2022/05/01 06:24:21;;;;;;;23.65;14.25;;;;;;;13.93;64.72;97989.88;5049355;28;20029;-71
2022/05/01 06:26:46;;;;;;;22.17;13.98;;;;;;;14.29;63.74;97984.19;5047275;28;20115;-73
2022/05/01 06:29:12;;;;;;;21.38;13.73;;;;;;;14.40;62.39;97988.31;5048737;28;20025;-72
2022/05/01 06:31:39;;;;;;;22.70;15.05;;;;;;;14.59;61.83;97993.53;5046535;28;20023;-72
2022/05/01 06:34:05;;;;;;;19.27;13.57;;;;;;;14.78;61.17;97999.56;5049286;28;20021;-70
2022/05/01 06:36:30;;;;;;;20.52;13.63;;;;;;;14.67;61.58;97993.53;5048594;28;20827;-71
2022/05/01 06:38:56;;;;;;;21.95;14.05;;;;;;;14.33;62.87;97993.47;5046960;28;20021;-71
2022/05/01 06:41:22;;;;;;;23.13;14.73;;;;;;;13.82;65.17;97996.75;5047604;28;20032;-71
2022/05/01 06:43:47;;;;;;;22.35;12.65;;;;;;;13.70;65.50;97994.59;5048360;28;20025;-74
2022/05/01 06:46:13;;;;;;;21.02;13.95;;;;;;;13.63;66.52;97985.97;5048088;28;20067;-71
2022/05/01 06:48:38;;;;;;;17.27;12.32;;;;;;;13.57;66.11;97998.22;5046101;28;20032;-72
2022/05/01 06:51:04;;;;;;;18.23;12.23;;;;;;;13.46;66.66;97999.59;5048318;28;20025;-71
2022/05/01 06:53:29;;;;;;;17.65;9.93;;;;;;;13.58;65.13;98005.34;5047693;28;20017;-71
2022/05/01 06:55:58;;;;;;;17.73;10.93;;;;;;;13.66;64.70;97987.25;5046254;28;20478;-72
2022/05/01 06:58:23;;;;;;;21.73;11.30;;;;;;;13.73;65.44;97996.69;5047985;28;20063;-71
2022/05/01 07:00:51;;;;;;;23.33;13.73;;;;;;;14.06;64.90;97993.66;5049570;28;20025;-72
2022/05/01 07:03:17;;;;;;;21.70;14.90;;;;;;;14.26;64.57;97993.06;5048098;28;20144;-71
2022/05/01 07:05:43;;;;;;;19.35;13.60;;;;;;;14.95;62.44;98005.91;5045910;28;20120;-71
2022/05/01 07:08:08;;;;;;;20.10;13.52;;;;;;;15.37;61.08;98000.75;5046565;28;20060;-71
2022/05/01 07:10:33;;;;;;;21.67;11.00;;;;;;;15.70;58.60;98007.38;5048363;28;20019;-71
2022/05/01 07:12:59;;;;;;;21.77;12.73;;;;;;;16.05;58.17;98006.16;5048117;28;20363;-71
2022/05/01 07:15:24;;;;;;;17.20;10.80;;;;;;;16.21;57.37;98008.38;5049289;28;20025;-72
2022/05/01 07:17:49;;;;;;;17.65;11.48;;;;;;;16.45;56.38;98009.41;5049482;28;20021;-71
2022/05/01 07:20:15;;;;;;;20.83;12.60;;;;;;;16.71;55.42;98012.06;5047351;28;20139;-72
2022/05/01 07:22:40;;;;;;;47.10;26.15;;;;;;;16.43;56.38;98006.16;5046563;28;20017;-73
2022/05/01 07:25:06;;;;;;;17.23;10.20;;;;;;;16.16;57.63;98003.84;5052681;28;20037;-79
2022/05/01 07:27:31;;;;;;;15.82;9.45;;;;;;;16.15;57.91;98007.75;5052132;28;20025;-79
2022/05/01 07:29:57;;;;;;;20.80;12.40;;;;;;;16.18;58.19;98007.09;5048056;28;20025;-82
2022/05/01 07:32:22;;;;;;;9.88;6.40;;;;;;;16.18;56.81;98018.13;5048617;28;20035;-83
2022/05/01 07:34:48;;;;;;;11.40;6.32;;;;;;;16.39;54.99;98004.41;5046244;28;20417;-83
2022/05/01 07:37:16;;;;;;;6.63;4.78;;;;;;;16.35;55.28;98015.28;5049857;28;20040;-82
2022/05/01 07:39:42;;;;;;;11.50;5.95;;;;;;;16.29;54.66;98010.31;5052602;28;20449;-83
2022/05/01 07:42:08;;;;;;;9.10;5.47;;;;;;;16.34;55.09;98005.41;5050912;28;20029;-84
2022/05/01 07:44:33;;;;;;;9.02;5.53;;;;;;;16.31;55.71;98003.31;5047563;28;20033;-81
2022/05/01 07:46:59;;;;;;;11.40;5.45;;;;;;;16.55;55.27;98011.00;5047597;28;20423;-88
2022/05/01 07:49:25;;;;;;;9.73;5.72;;;;;;;16.81;55.00;98011.69;5050805;28;20029;-81
2022/05/01 07:51:50;;;;;;;11.32;5.72;;;;;;;17.05;54.40;98017.38;5048606;28;20049;-77
2022/05/01 07:54:16;;;;;;;8.43;5.57;;;;;;;17.22;54.51;98015.63;5052200;28;20025;-79
2022/05/01 07:56:41;;;;;;;9.90;6.22;;;;;;;17.29;54.31;98010.38;5053011;28;20021;-82
2022/05/01 07:59:08;;;;;;;12.48;6.72;;;;;;;17.41;54.55;98008.47;5054599;28;20029;-81
2022/05/01 08:01:34;;;;;;;8.30;5.68;;;;;;;17.61;53.97;98004.09;5051898;28;20031;-85
2022/05/01 08:06:43;;;;;;;8.55;5.85;;;;;;;17.35;55.01;98011.78;5050094;28;20540;-85
2022/05/01 08:09:08;;;;;;;10.10;5.57;;;;;;;18.41;52.33;97996.22;5053400;28;20017;-85
2022/05/01 08:11:34;;;;;;;8.23;5.40;;;;;;;19.00;51.09;98002.09;5054313;28;20525;-89
2022/05/01 08:14:00;;;;;;;7.90;5.22;;;;;;;19.35;49.48;98010.69;5054759;28;20029;-83
2022/05/01 08:16:25;;;;;;;9.32;5.32;;;;;;;19.83;49.13;98002.19;5054195;28;20013;-75
2022/05/01 08:21:36;;;;;;;8.57;4.82;;;;;;;23.76;40.36;98016.63;5051587;28;20028;-74
2022/05/01 08:24:04;;;;;;;8.18;4.85;;;;;;;23.69;39.26;98011.75;5052216;28;21683;-74
2022/05/01 08:26:33;;;;;;;8.70;4.57;;;;;;;22.73;40.71;98003.97;5052359;28;20036;-75
2022/05/01 08:28:59;;;;;;;5.97;3.85;;;;;;;21.88;42.31;98008.00;5047498;28;20432;-74
2022/05/01 08:31:25;;;;;;;4.47;3.47;;;;;;;23.07;40.77;98015.25;5048860;28;20083;-76
2022/05/01 08:33:50;;;;;;;4.28;3.03;;;;;;;23.80;39.63;98017.50;5051080;28;20550;-76
2022/05/01 08:36:16;;;;;;;8.57;4.78;;;;;;;23.01;40.51;98016.75;5050937;28;20029;-74
2022/05/01 08:38:42;;;;;;;5.53;4.03;;;;;;;22.97;40.45;98008.31;5049545;28;20091;-75
2022/05/01 08:41:08;;;;;;;5.43;3.67;;;;;;;23.70;39.51;98006.97;5048217;28;20475;-75
2022/05/01 08:43:34;;;;;;;5.47;3.85;;;;;;;23.66;39.40;98004.16;5050863;28;20059;-74
2022/05/01 08:46:09;;;;;;;6.60;3.60;;;;;;;23.16;40.38;98013.81;5050808;28;20028;-73
2022/05/01 08:48:34;;;;;;;6.23;3.80;;;;;;;23.26;39.98;98015.94;5049056;28;20048;-75
2022/05/01 08:51:01;;;;;;;5.10;3.55;;;;;;;23.14;39.78;98012.56;5049545;28;20742;-73
2022/05/01 08:53:28;;;;;;;6.80;3.80;;;;;;;22.40;40.73;98012.94;5049860;28;20063;-74
2022/05/01 08:55:55;;;;;;;5.28;3.50;;;;;;;22.14;42.42;98006.50;5050964;28;20060;-74
2022/05/01 08:58:22;;;;;;;4.93;3.42;;;;;;;22.74;40.75;97994.41;5051164;28;20052;-76
2022/05/01 09:00:49;;;;;;;5.45;3.65;;;;;;;23.06;40.61;97994.09;5050943;28;20036;-81
2022/05/01 09:03:16;;;;;;;4.57;3.35;;;;;;;24.78;37.64;97991.72;5053026;28;20037;-80
2022/05/01 09:05:41;;;;;;;6.40;3.13;;;;;;;26.41;34.09;97997.00;5050227;28;20032;-78
2022/05/01 09:08:07;;;;;;;5.72;3.38;;;;;;;26.08;34.26;97994.50;5050271;28;20677;-76
2022/05/01 09:10:33;;;;;;;4.10;2.90;;;;;;;26.94;33.50;97985.03;5050353;28;20112;-78
2022/05/01 09:12:58;;;;;;;5.78;3.63;;;;;;;27.65;32.11;97992.13;5050211;28;20040;-78
2022/05/01 09:15:40;;;;;;;5.68;3.63;;;;;;;27.66;31.33;97978.81;5050184;28;20029;-79
2022/05/01 09:18:08;;;;;;;5.47;3.55;;;;;;;27.47;31.89;97984.94;5050339;28;20025;-77
2022/05/01 09:20:38;;;;;;;5.47;3.47;;;;;;;26.28;33.23;97980.97;5042881;28;20404;-77
2022/05/01 09:23:05;;;;;;;4.20;3.17;;;;;;;25.76;34.70;97988.78;5051178;28;20020;-77
2022/05/01 09:25:32;;;;;;;5.22;3.45;;;;;;;26.07;33.74;97982.47;5051245;28;20491;-76
2022/05/01 09:28:01;;;;;;;4.88;3.50;;;;;;;27.43;32.23;97984.16;5050323;28;20028;-78
2022/05/01 09:30:35;;;;;;;4.80;3.20;;;;;;;26.16;33.32;97976.50;5049165;28;20025;-76
2022/05/01 09:33:02;;;;;;;4.15;3.13;;;;;;;25.28;35.26;97976.91;5048837;28;20112;-74
2022/05/01 09:35:33;;;;;;;4.82;2.95;;;;;;;24.68;36.63;97962.50;5051147;28;20029;-77
2022/05/01 09:38:16;;;;;;;5.50;3.50;;;;;;;23.79;37.64;97963.59;5050549;28;20405;-77
2022/05/01 09:40:47;;;;;;;4.57;3.15;;;;;;;22.37;40.46;97957.13;5049342;28;20029;-77
2022/05/01 09:43:30;;;;;;;4.43;3.42;;;;;;;21.83;41.86;97960.88;5047751;28;20385;-76
2022/05/01 09:46:18;;;;;;;12.57;3.95;;;;;;;21.77;42.31;97947.66;5051243;28;20021;-78
2022/05/01 09:49:05;;;;;;;6.63;3.20;;;;;;;22.38;41.28;97940.03;5033373;28;20088;-77
2022/05/01 09:51:35;;;;;;;5.22;3.17;;;;;;;23.06;39.89;97955.03;5037404;28;20513;-77
2022/05/01 09:54:03;;;;;;;4.80;3.53;;;;;;;24.72;37.46;97934.50;5047973;28;20071;-77
2022/05/01 09:56:42;;;;;;;5.18;3.22;;;;;;;24.75;36.58;97936.53;5048507;28;20025;-77
2022/05/01 09:59:07;;;;;;;4.53;3.30;;;;;;;22.67;40.02;97935.75;5038737;28;20025;-77
2022/05/01 10:01:33;;;;;;;5.72;3.30;;;;;;;22.08;41.60;97927.16;5050187;28;20017;-78
2022/05/01 10:04:02;;;;;;;4.72;3.65;;;;;;;22.64;41.37;97935.66;5050391;28;20055;-78
2022/05/01 10:06:29;;;;;;;5.07;3.47;;;;;;;23.12;40.00;97932.00;5048719;28;20072;-83
2022/05/01 10:08:55;;;;;;;4.55;3.20;;;;;;;23.80;39.14;97933.66;5050612;28;20111;-80
2022/05/01 10:11:23;;;;;;;6.43;3.85;;;;;;;24.56;37.37;97936.81;5050897;28;20104;-76
2022/05/01 10:13:50;;;;;;;4.57;3.60;;;;;;;25.20;36.16;97932.44;5052362;28;20037;-76
2022/05/01 10:16:15;;;;;;;4.68;3.40;;;;;;;24.14;37.14;97938.03;5052523;28;20032;-77
2022/05/01 10:18:44;;;;;;;3.97;3.13;;;;;;;23.45;39.00;97928.47;5051114;28;20020;-75
2022/05/01 10:21:10;;;;;;;5.00;3.88;;;;;;;22.77;40.14;97923.16;5048349;28;20394;-77
2022/05/01 10:23:35;;;;;;;6.28;3.90;;;;;;;22.16;41.56;97920.53;5055025;28;20019;-84
2022/05/01 10:26:20;;;;;;;5.05;3.55;;;;;;;22.97;39.87;97918.22;5057064;28;20434;-79
2022/05/01 10:28:55;;;;;;;4.30;3.15;;;;;;;22.57;40.64;97916.81;5042071;28;20375;-85
2022/05/01 10:32:21;;;;;;;7.05;3.70;;;;;;;22.06;41.68;97910.00;5055353;28;20029;-81
2022/05/01 10:35:03;;;;;;;9.40;6.03;;;;;;;21.86;42.47;97895.31;5021454;28;20097;-81
2022/05/01 10:38:06;;;;;;;9.90;5.88;;;;;;;21.67;42.44;97906.47;5028951;28;20033;-85
2022/05/01 10:40:41;;;;;;;5.30;3.90;;;;;;;21.05;43.80;97902.03;5028529;28;20119;-80
2022/05/01 10:43:38;;;;;;;4.38;3.30;;;;;;;21.14;44.21;97892.31;5048353;28;20025;-75
2022/05/01 10:46:24;;;;;;;5.82;3.70;;;;;;;21.44;43.87;97891.69;5048760;28;20468;-75
2022/05/01 10:48:49;;;;;;;7.57;3.83;;;;;;;20.98;44.64;97880.41;5050140;28;20024;-74
2022/05/01 10:51:27;;;;;;;5.22;3.60;;;;;;;21.17;45.44;97868.53;5052401;28;20078;-79
2022/05/01 10:54:17;;;;;;;5.43;3.33;;;;;;;21.29;43.78;97865.59;5049922;28;20118;-75
2022/05/01 10:56:48;;;;;;;4.07;3.17;;;;;;;20.89;44.54;97865.94;5051137;28;20516;-83
2022/05/01 10:59:29;;;;;;;4.50;3.20;;;;;;;20.59;45.71;97857.31;5050989;28;20104;-81
2022/05/01 11:01:58;;;;;;;5.07;3.78;;;;;;;20.60;45.85;97858.13;5049924;28;20033;-85
2022/05/01 11:04:24;;;;;;;4.93;3.50;;;;;;;20.07;47.45;97852.09;5052992;28;20462;-81
2022/05/01 11:06:51;;;;;;;4.72;3.35;;;;;;;19.56;48.25;97847.63;5052426;28;20029;-84
2022/05/01 11:09:22;;;;;;;4.03;2.95;;;;;;;19.41;47.16;97837.31;5058363;28;20029;-80
2022/05/01 11:11:53;;;;;;;4.35;3.03;;;;;;;19.03;47.34;97835.84;5054428;28;20029;-82
2022/05/01 11:14:33;;;;;;;4.28;3.03;;;;;;;18.54;48.49;97829.66;5050114;28;20688;-74
2022/05/01 11:16:58;;;;;;;3.40;2.60;;;;;;;18.44;49.44;97823.78;5047180;28;20029;-75
2022/05/01 11:19:24;;;;;;;5.05;2.92;;;;;;;18.40;50.67;97811.78;5048878;28;20074;-75
2022/05/01 11:21:49;;;;;;;4.15;3.25;;;;;;;18.52;51.02;97818.13;5049591;28;20086;-78
2022/05/01 11:24:15;;;;;;;4.38;3.00;;;;;;;18.23;50.10;97812.84;5048295;28;20486;-82
2022/05/01 11:27:11;;;;;;;4.78;3.40;;;;;;;18.05;50.84;97825.31;5051671;28;20403;-84
2022/05/01 11:29:37;;;;;;;3.70;2.95;;;;;;;17.86;51.45;97822.31;5069954;28;20037;-76
2022/05/01 11:32:19;;;;;;;5.07;3.35;;;;;;;17.60;53.33;97831.75;5052917;28;20033;-76
2022/05/01 11:34:50;;;;;;;6.07;3.10;;;;;;;17.40;52.62;97840.13;5053588;28;20025;-76
2022/05/01 11:37:16;;;;;;;5.22;3.22;;;;;;;17.27;53.13;97844.00;5051895;28;20773;-75
2022/05/01 11:39:50;;;;;;;4.38;3.08;;;;;;;17.25;53.05;97863.72;5053709;28;20032;-76
2022/05/01 11:42:24;;;;;;;4.80;3.33;;;;;;;17.15;53.03;97889.00;5052964;28;20032;-77
2022/05/01 11:44:57;;;;;;;4.18;3.08;;;;;;;16.97;54.61;97917.94;5052944;28;20098;-75
2022/05/01 11:47:26;;;;;;;10.68;4.40;;;;;;;16.61;56.72;97954.44;5051274;28;20036;-74
2022/05/01 11:49:51;;;;;;;5.70;3.85;;;;;;;14.63;64.97;97959.53;5054770;28;20075;-73
2022/05/01 11:52:17;;;;;;;6.03;4.32;;;;;;;13.39;78.16;97944.28;5053417;28;20441;-74
2022/05/01 11:54:59;;;;;;;12.75;6.75;;;;;;;12.45;97.26;97933.31;5053909;28;20106;-73